Akhiok, Alaska
Current Conditions -  °F | °C
As of 12:53 AM on Wednesday 26 Nov 2014 (Local Time) from PADQ Reporting Station
Few Clouds Few Clouds  
Wind Chill: 21°   Ceiling: Unl
Heat Index: 28°   Visibility: 10mi
Dew Point: 27°   Wind: 7mph
Humidity: 96%   Direction: 270°W
Pressure: 30.33"   Gusts: NA
Location:  57.454°N, 153.546°W
Report Text: PADQ 260953Z 27006KT 10SM FEW018 M02/M03 A3033 RMK AO2 SLP272 I1000 T10221028
Loading
Personal Weather Stations






























Interactive Weather Map New forecast layout! Learn more

10-Day Weather Forecast

Advertisements
Track Severe Weather on mobile